sensor_id;sensor_type;location;lat;lon;timestamp;P1;durP1;ratioP1;P2;durP2;ratioP2
22097;SDS011;11215;51.938;8.464;2022-12-29T00:02:08;1.27;;;1.10;;
22097;SDS011;11215;51.938;8.464;2022-12-29T00:04:34;1.17;;;1.07;;
22097;SDS011;11215;51.938;8.464;2022-12-29T00:07:00;1.30;;;1.20;;
22097;SDS011;11215;51.938;8.464;2022-12-29T00:09:26;1.50;;;1.10;;
22097;SDS011;11215;51.938;8.464;2022-12-29T00:11:52;1.40;;;1.30;;
22097;SDS011;11215;51.938;8.464;2022-12-29T00:14:17;1.40;;;1.10;;
22097;SDS011;11215;51.938;8.464;2022-12-29T00:17:03;1.40;;;1.00;;
22097;SDS011;11215;51.938;8.464;2022-12-29T00:19:28;1.17;;;0.90;;
22097;SDS011;11215;51.938;8.464;2022-12-29T00:22:13;1.47;;;1.10;;
22097;SDS011;11215;51.938;8.464;2022-12-29T00:24:58;2.03;;;1.20;;
22097;SDS011;11215;51.938;8.464;2022-12-29T00:27:30;1.03;;;1.00;;
22097;SDS011;11215;51.938;8.464;2022-12-29T00:30:19;1.20;;;1.10;;
22097;SDS011;11215;51.938;8.464;2022-12-29T00:33:14;1.13;;;1.03;;
22097;SDS011;11215;51.938;8.464;2022-12-29T00:36:02;2.20;;;1.07;;
22097;SDS011;11215;51.938;8.464;2022-12-29T00:38:31;1.17;;;0.70;;
22097;SDS011;11215;51.938;8.464;2022-12-29T00:41:18;1.20;;;1.10;;
22097;SDS011;11215;51.938;8.464;2022-12-29T00:44:02;1.57;;;1.10;;
22097;SDS011;11215;51.938;8.464;2022-12-29T00:46:34;1.20;;;0.80;;
22097;SDS011;11215;51.938;8.464;2022-12-29T00:49:04;1.00;;;0.83;;
22097;SDS011;11215;51.938;8.464;2022-12-29T00:51:50;1.20;;;1.10;;
22097;SDS011;11215;51.938;8.464;2022-12-29T00:54:15;1.67;;;0.90;;
22097;SDS011;11215;51.938;8.464;2022-12-29T00:56:41;0.70;;;0.70;;
22097;SDS011;11215;51.938;8.464;2022-12-29T00:59:08;1.23;;;1.13;;
22097;SDS011;11215;51.938;8.464;2022-12-29T01:01:35;1.97;;;0.93;;
22097;SDS011;11215;51.938;8.464;2022-12-29T01:04:02;0.80;;;0.80;;
22097;SDS011;11215;51.938;8.464;2022-12-29T01:06:28;0.60;;;0.60;;
22097;SDS011;11215;51.938;8.464;2022-12-29T01:08:54;0.70;;;0.70;;
22097;SDS011;11215;51.938;8.464;2022-12-29T01:11:38;1.10;;;0.93;;
22097;SDS011;11215;51.938;8.464;2022-12-29T01:14:05;0.70;;;0.70;;
22097;SDS011;11215;51.938;8.464;2022-12-29T01:16:31;1.10;;;0.93;;
22097;SDS011;11215;51.938;8.464;2022-12-29T01:18:57;1.33;;;0.93;;
22097;SDS011;11215;51.938;8.464;2022-12-29T01:21:23;0.83;;;0.80;;
22097;SDS011;11215;51.938;8.464;2022-12-29T01:23:49;1.30;;;0.90;;
22097;SDS011;11215;51.938;8.464;2022-12-29T01:26:15;1.43;;;0.80;;
22097;SDS011;11215;51.938;8.464;2022-12-29T01:28:42;1.03;;;0.80;;
22097;SDS011;11215;51.938;8.464;2022-12-29T01:31:08;0.93;;;0.80;;
22097;SDS011;11215;51.938;8.464;2022-12-29T01:33:35;1.10;;;0.60;;
22097;SDS011;11215;51.938;8.464;2022-12-29T01:36:04;0.70;;;0.70;;
22097;SDS011;11215;51.938;8.464;2022-12-29T01:38:32;0.90;;;0.70;;
22097;SDS011;11215;51.938;8.464;2022-12-29T01:41:02;0.90;;;0.70;;
22097;SDS011;11215;51.938;8.464;2022-12-29T01:51:33;1.93;;;0.70;;
22097;SDS011;11215;51.938;8.464;2022-12-29T01:54:04;0.70;;;0.63;;
22097;SDS011;11215;51.938;8.464;2022-12-29T01:56:42;0.93;;;0.60;;
22097;SDS011;11215;51.938;8.464;2022-12-29T01:59:10;0.70;;;0.60;;
22097;SDS011;11215;51.938;8.464;2022-12-29T02:01:41;0.60;;;0.60;;
22097;SDS011;11215;51.938;8.464;2022-12-29T02:04:08;0.73;;;0.53;;
22097;SDS011;11215;51.938;8.464;2022-12-29T02:06:45;0.60;;;0.60;;
22097;SDS011;11215;51.938;8.464;2022-12-29T02:09:31;0.67;;;0.53;;
22097;SDS011;11215;51.938;8.464;2022-12-29T02:11:57;0.93;;;0.57;;
22097;SDS011;11215;51.938;8.464;2022-12-29T02:14:24;0.43;;;0.43;;
22097;SDS011;11215;51.938;8.464;2022-12-29T02:17:12;0.30;;;0.30;;
22097;SDS011;11215;51.938;8.464;2022-12-29T02:25:52;0.60;;;0.60;;
22097;SDS011;11215;51.938;8.464;2022-12-29T02:34:22;1.87;;;0.43;;
22097;SDS011;11215;51.938;8.464;2022-12-29T02:39:53;0.63;;;0.50;;
22097;SDS011;11215;51.938;8.464;2022-12-29T02:45:13;6.43;;;0.70;;
22097;SDS011;11215;51.938;8.464;2022-12-29T02:51:20;0.50;;;0.50;;
22097;SDS011;11215;51.938;8.464;2022-12-29T02:53:45;0.40;;;0.40;;
22097;SDS011;11215;51.938;8.464;2022-12-29T02:56:30;1.27;;;0.40;;
22097;SDS011;11215;51.938;8.464;2022-12-29T02:58:56;0.70;;;0.30;;
22097;SDS011;11215;51.938;8.464;2022-12-29T03:20:36;1.07;;;0.40;;
22097;SDS011;11215;51.938;8.464;2022-12-29T03:23:06;0.50;;;0.20;;
22097;SDS011;11215;51.938;8.464;2022-12-29T03:25:37;0.50;;;0.40;;
22097;SDS011;11215;51.938;8.464;2022-12-29T03:28:09;0.30;;;0.30;;
22097;SDS011;11215;51.938;8.464;2022-12-29T03:30:38;0.37;;;0.37;;
22097;SDS011;11215;51.938;8.464;2022-12-29T03:33:07;0.63;;;0.30;;
22097;SDS011;11215;51.938;8.464;2022-12-29T03:35:37;0.20;;;0.20;;
22097;SDS011;11215;51.938;8.464;2022-12-29T03:40:55;0.30;;;0.30;;
22097;SDS011;11215;51.938;8.464;2022-12-29T03:43:23;1.17;;;0.20;;
22097;SDS011;11215;51.938;8.464;2022-12-29T03:45:49;0.57;;;0.33;;
22097;SDS011;11215;51.938;8.464;2022-12-29T03:48:15;0.23;;;0.23;;
22097;SDS011;11215;51.938;8.464;2022-12-29T03:50:40;0.80;;;0.40;;
22097;SDS011;11215;51.938;8.464;2022-12-29T03:53:06;0.67;;;0.40;;
22097;SDS011;11215;51.938;8.464;2022-12-29T03:55:32;0.20;;;0.20;;
22097;SDS011;11215;51.938;8.464;2022-12-29T03:57:58;0.33;;;0.30;;
22097;SDS011;11215;51.938;8.464;2022-12-29T04:00:23;0.20;;;0.20;;
22097;SDS011;11215;51.938;8.464;2022-12-29T04:02:49;0.47;;;0.40;;
22097;SDS011;11215;51.938;8.464;2022-12-29T04:05:14;0.20;;;0.20;;
22097;SDS011;11215;51.938;8.464;2022-12-29T04:07:40;0.40;;;0.40;;
22097;SDS011;11215;51.938;8.464;2022-12-29T04:10:06;1.40;;;0.27;;
22097;SDS011;11215;51.938;8.464;2022-12-29T04:12:33;0.33;;;0.30;;
22097;SDS011;11215;51.938;8.464;2022-12-29T04:14:58;0.40;;;0.40;;
22097;SDS011;11215;51.938;8.464;2022-12-29T04:17:30;0.50;;;0.40;;
22097;SDS011;11215;51.938;8.464;2022-12-29T04:19:56;0.53;;;0.40;;
22097;SDS011;11215;51.938;8.464;2022-12-29T04:22:41;0.30;;;0.30;;
22097;SDS011;11215;51.938;8.464;2022-12-29T04:25:07;1.60;;;0.40;;
22097;SDS011;11215;51.938;8.464;2022-12-29T04:27:33;0.50;;;0.50;;
22097;SDS011;11215;51.938;8.464;2022-12-29T04:29:58;0.83;;;0.30;;
22097;SDS011;11215;51.938;8.464;2022-12-29T04:32:24;0.43;;;0.40;;
22097;SDS011;11215;51.938;8.464;2022-12-29T04:34:50;0.70;;;0.53;;
22097;SDS011;11215;51.938;8.464;2022-12-29T04:37:15;0.80;;;0.40;;
22097;SDS011;11215;51.938;8.464;2022-12-29T04:39:41;0.73;;;0.30;;
22097;SDS011;11215;51.938;8.464;2022-12-29T04:42:06;0.57;;;0.40;;
22097;SDS011;11215;51.938;8.464;2022-12-29T04:44:32;1.23;;;0.70;;
22097;SDS011;11215;51.938;8.464;2022-12-29T04:46:57;0.40;;;0.40;;
22097;SDS011;11215;51.938;8.464;2022-12-29T04:49:23;0.60;;;0.47;;
22097;SDS011;11215;51.938;8.464;2022-12-29T04:51:49;0.77;;;0.40;;
22097;SDS011;11215;51.938;8.464;2022-12-29T04:54:20;0.40;;;0.40;;
22097;SDS011;11215;51.938;8.464;2022-12-29T04:56:46;0.70;;;0.33;;
22097;SDS011;11215;51.938;8.464;2022-12-29T04:59:11;1.97;;;0.60;;
22097;SDS011;11215;51.938;8.464;2022-12-29T05:01:37;0.40;;;0.40;;
22097;SDS011;11215;51.938;8.464;2022-12-29T05:04:03;0.30;;;0.30;;
22097;SDS011;11215;51.938;8.464;2022-12-29T05:06:28;1.00;;;0.40;;
22097;SDS011;11215;51.938;8.464;2022-12-29T05:08:54;0.50;;;0.30;;
22097;SDS011;11215;51.938;8.464;2022-12-29T05:11:20;1.80;;;0.30;;
22097;SDS011;11215;51.938;8.464;2022-12-29T05:13:45;0.30;;;0.30;;
22097;SDS011;11215;51.938;8.464;2022-12-29T05:16:11;0.40;;;0.40;;
22097;SDS011;11215;51.938;8.464;2022-12-29T05:18:37;0.30;;;0.30;;
22097;SDS011;11215;51.938;8.464;2022-12-29T05:21:03;1.33;;;0.50;;
22097;SDS011;11215;51.938;8.464;2022-12-29T05:23:29;0.37;;;0.37;;
22097;SDS011;11215;51.938;8.464;2022-12-29T05:25:54;1.20;;;0.40;;
22097;SDS011;11215;51.938;8.464;2022-12-29T05:28:20;0.60;;;0.47;;
22097;SDS011;11215;51.938;8.464;2022-12-29T05:30:49;0.57;;;0.43;;
22097;SDS011;11215;51.938;8.464;2022-12-29T05:33:16;0.60;;;0.50;;
22097;SDS011;11215;51.938;8.464;2022-12-29T05:35:42;0.30;;;0.30;;
22097;SDS011;11215;51.938;8.464;2022-12-29T05:38:08;0.40;;;0.40;;
22097;SDS011;11215;51.938;8.464;2022-12-29T05:40:34;0.33;;;0.30;;
22097;SDS011;11215;51.938;8.464;2022-12-29T05:43:00;0.40;;;0.40;;
22097;SDS011;11215;51.938;8.464;2022-12-29T05:45:25;0.43;;;0.40;;
22097;SDS011;11215;51.938;8.464;2022-12-29T05:47:51;0.87;;;0.40;;
22097;SDS011;11215;51.938;8.464;2022-12-29T05:50:16;0.67;;;0.40;;
22097;SDS011;11215;51.938;8.464;2022-12-29T05:52:42;0.30;;;0.30;;
22097;SDS011;11215;51.938;8.464;2022-12-29T05:55:08;0.43;;;0.40;;
22097;SDS011;11215;51.938;8.464;2022-12-29T05:57:33;0.40;;;0.40;;
22097;SDS011;11215;51.938;8.464;2022-12-29T05:59:59;0.50;;;0.50;;
22097;SDS011;11215;51.938;8.464;2022-12-29T06:02:25;0.40;;;0.40;;
22097;SDS011;11215;51.938;8.464;2022-12-29T06:04:50;0.50;;;0.50;;
22097;SDS011;11215;51.938;8.464;2022-12-29T06:07:16;0.60;;;0.43;;
22097;SDS011;11215;51.938;8.464;2022-12-29T06:09:41;0.37;;;0.37;;
22097;SDS011;11215;51.938;8.464;2022-12-29T06:12:07;0.70;;;0.57;;
22097;SDS011;11215;51.938;8.464;2022-12-29T06:14:33;0.80;;;0.50;;
22097;SDS011;11215;51.938;8.464;2022-12-29T06:16:58;0.40;;;0.40;;
22097;SDS011;11215;51.938;8.464;2022-12-29T06:19:24;0.70;;;0.53;;
22097;SDS011;11215;51.938;8.464;2022-12-29T06:21:50;0.50;;;0.50;;
22097;SDS011;11215;51.938;8.464;2022-12-29T06:24:17;0.40;;;0.40;;
22097;SDS011;11215;51.938;8.464;2022-12-29T06:26:43;0.50;;;0.50;;
22097;SDS011;11215;51.938;8.464;2022-12-29T06:29:09;0.53;;;0.53;;
22097;SDS011;11215;51.938;8.464;2022-12-29T06:31:41;0.40;;;0.40;;
22097;SDS011;11215;51.938;8.464;2022-12-29T06:34:14;0.60;;;0.60;;
22097;SDS011;11215;51.938;8.464;2022-12-29T06:36:40;0.60;;;0.60;;
22097;SDS011;11215;51.938;8.464;2022-12-29T06:39:05;0.50;;;0.50;;
22097;SDS011;11215;51.938;8.464;2022-12-29T06:41:31;0.57;;;0.50;;
22097;SDS011;11215;51.938;8.464;2022-12-29T06:43:57;2.77;;;0.60;;
22097;SDS011;11215;51.938;8.464;2022-12-29T06:46:22;1.60;;;0.60;;
22097;SDS011;11215;51.938;8.464;2022-12-29T06:48:51;0.53;;;0.40;;
22097;SDS011;11215;51.938;8.464;2022-12-29T06:51:17;0.50;;;0.50;;
22097;SDS011;11215;51.938;8.464;2022-12-29T06:53:43;0.67;;;0.50;;
22097;SDS011;11215;51.938;8.464;2022-12-29T06:56:08;0.50;;;0.50;;
22097;SDS011;11215;51.938;8.464;2022-12-29T06:58:34;3.50;;;0.77;;
22097;SDS011;11215;51.938;8.464;2022-12-29T07:00:59;1.17;;;0.80;;
22097;SDS011;11215;51.938;8.464;2022-12-29T07:03:25;1.47;;;0.70;;
22097;SDS011;11215;51.938;8.464;2022-12-29T07:05:51;0.90;;;0.80;;
22097;SDS011;11215;51.938;8.464;2022-12-29T07:08:16;0.97;;;0.63;;
22097;SDS011;11215;51.938;8.464;2022-12-29T07:10:42;1.10;;;0.60;;
22097;SDS011;11215;51.938;8.464;2022-12-29T07:13:07;1.63;;;0.60;;
22097;SDS011;11215;51.938;8.464;2022-12-29T07:15:34;1.20;;;0.60;;
22097;SDS011;11215;51.938;8.464;2022-12-29T07:18:01;0.90;;;0.70;;
22097;SDS011;11215;51.938;8.464;2022-12-29T07:20:28;1.70;;;0.80;;
22097;SDS011;11215;51.938;8.464;2022-12-29T07:22:53;3.60;;;1.03;;
22097;SDS011;11215;51.938;8.464;2022-12-29T07:25:19;1.20;;;0.70;;
22097;SDS011;11215;51.938;8.464;2022-12-29T07:27:45;2.17;;;0.60;;
22097;SDS011;11215;51.938;8.464;2022-12-29T07:30:13;1.67;;;0.70;;
22097;SDS011;11215;51.938;8.464;2022-12-29T07:32:39;1.73;;;0.67;;
22097;SDS011;11215;51.938;8.464;2022-12-29T07:35:05;1.43;;;1.00;;
22097;SDS011;11215;51.938;8.464;2022-12-29T07:37:31;1.27;;;0.90;;
22097;SDS011;11215;51.938;8.464;2022-12-29T07:39:56;3.27;;;1.10;;
22097;SDS011;11215;51.938;8.464;2022-12-29T07:42:22;2.10;;;1.00;;
22097;SDS011;11215;51.938;8.464;2022-12-29T07:44:48;2.00;;;1.10;;
22097;SDS011;11215;51.938;8.464;2022-12-29T07:47:13;2.03;;;1.00;;
22097;SDS011;11215;51.938;8.464;2022-12-29T07:49:39;2.17;;;1.17;;
22097;SDS011;11215;51.938;8.464;2022-12-29T07:52:05;2.83;;;1.03;;
22097;SDS011;11215;51.938;8.464;2022-12-29T07:54:30;1.40;;;1.13;;
22097;SDS011;11215;51.938;8.464;2022-12-29T07:56:56;2.60;;;1.70;;
22097;SDS011;11215;51.938;8.464;2022-12-29T07:59:25;3.77;;;1.20;;
22097;SDS011;11215;51.938;8.464;2022-12-29T08:01:50;2.37;;;1.20;;
22097;SDS011;11215;51.938;8.464;2022-12-29T08:04:16;2.90;;;1.23;;
22097;SDS011;11215;51.938;8.464;2022-12-29T08:06:42;2.53;;;1.10;;
22097;SDS011;11215;51.938;8.464;2022-12-29T08:09:07;2.27;;;1.37;;
22097;SDS011;11215;51.938;8.464;2022-12-29T08:11:33;2.53;;;1.40;;
22097;SDS011;11215;51.938;8.464;2022-12-29T08:13:59;3.47;;;1.43;;
22097;SDS011;11215;51.938;8.464;2022-12-29T08:16:24;2.47;;;1.23;;
22097;SDS011;11215;51.938;8.464;2022-12-29T08:18:50;2.10;;;1.40;;
22097;SDS011;11215;51.938;8.464;2022-12-29T08:21:16;1.83;;;1.10;;
22097;SDS011;11215;51.938;8.464;2022-12-29T08:23:47;1.10;;;0.93;;
22097;SDS011;11215;51.938;8.464;2022-12-29T08:26:13;1.63;;;1.00;;
22097;SDS011;11215;51.938;8.464;2022-12-29T08:28:38;2.87;;;1.00;;
22097;SDS011;11215;51.938;8.464;2022-12-29T08:31:04;1.47;;;0.90;;
22097;SDS011;11215;51.938;8.464;2022-12-29T08:33:30;1.77;;;0.80;;
22097;SDS011;11215;51.938;8.464;2022-12-29T08:35:59;2.97;;;1.10;;
22097;SDS011;11215;51.938;8.464;2022-12-29T08:38:29;1.80;;;1.10;;
22097;SDS011;11215;51.938;8.464;2022-12-29T08:40:56;2.53;;;1.13;;
22097;SDS011;11215;51.938;8.464;2022-12-29T08:43:23;1.07;;;0.90;;
22097;SDS011;11215;51.938;8.464;2022-12-29T08:45:48;1.77;;;0.90;;
22097;SDS011;11215;51.938;8.464;2022-12-29T08:48:14;1.27;;;0.80;;
22097;SDS011;11215;51.938;8.464;2022-12-29T08:50:43;1.37;;;0.70;;
22097;SDS011;11215;51.938;8.464;2022-12-29T08:53:09;2.77;;;1.00;;
22097;SDS011;11215;51.938;8.464;2022-12-29T08:55:35;2.97;;;1.37;;
22097;SDS011;11215;51.938;8.464;2022-12-29T08:58:00;2.17;;;1.60;;
22097;SDS011;11215;51.938;8.464;2022-12-29T09:00:26;2.10;;;1.20;;
22097;SDS011;11215;51.938;8.464;2022-12-29T09:02:52;1.37;;;0.97;;
22097;SDS011;11215;51.938;8.464;2022-12-29T09:05:17;1.77;;;1.27;;
22097;SDS011;11215;51.938;8.464;2022-12-29T09:07:43;2.93;;;1.10;;
22097;SDS011;11215;51.938;8.464;2022-12-29T09:10:09;3.93;;;1.33;;
22097;SDS011;11215;51.938;8.464;2022-12-29T09:12:34;3.10;;;1.37;;
22097;SDS011;11215;51.938;8.464;2022-12-29T09:15:00;3.17;;;1.40;;
22097;SDS011;11215;51.938;8.464;2022-12-29T09:17:26;2.63;;;1.60;;
22097;SDS011;11215;51.938;8.464;2022-12-29T09:20:14;1.60;;;1.30;;
22097;SDS011;11215;51.938;8.464;2022-12-29T09:22:41;1.50;;;1.40;;
22097;SDS011;11215;51.938;8.464;2022-12-29T09:25:07;4.50;;;2.17;;
22097;SDS011;11215;51.938;8.464;2022-12-29T09:27:34;4.60;;;1.50;;
22097;SDS011;11215;51.938;8.464;2022-12-29T09:30:01;2.30;;;1.33;;
22097;SDS011;11215;51.938;8.464;2022-12-29T09:32:27;5.07;;;1.30;;
22097;SDS011;11215;51.938;8.464;2022-12-29T09:34:53;4.10;;;1.20;;
22097;SDS011;11215;51.938;8.464;2022-12-29T09:37:21;3.07;;;1.23;;
22097;SDS011;11215;51.938;8.464;2022-12-29T09:39:46;4.00;;;1.00;;
22097;SDS011;11215;51.938;8.464;2022-12-29T09:42:14;2.73;;;1.07;;
22097;SDS011;11215;51.938;8.464;2022-12-29T09:47:27;5.73;;;1.30;;
22097;SDS011;11215;51.938;8.464;2022-12-29T09:50:03;3.80;;;0.93;;
22097;SDS011;11215;51.938;8.464;2022-12-29T09:52:36;5.07;;;1.00;;
22097;SDS011;11215;51.938;8.464;2022-12-29T09:55:16;4.60;;;1.40;;
22097;SDS011;11215;51.938;8.464;2022-12-29T09:57:49;4.87;;;1.47;;
